createdAt,value
2023-02-11T00:01:32.087Z,57.18
2023-02-11T00:04:01.162Z,57.03
2023-02-11T00:06:31.289Z,56.93
2023-02-11T00:08:58.767Z,56.82
2023-02-11T00:11:30.780Z,57.00
2023-02-11T00:14:00.113Z,56.98
2023-02-11T00:16:28.172Z,56.98
2023-02-11T00:18:55.961Z,56.84
2023-02-11T00:21:25.716Z,56.70
2023-02-11T00:23:55.061Z,56.81
2023-02-11T00:26:27.926Z,56.86
2023-02-11T00:28:55.313Z,56.91
2023-02-11T00:31:24.085Z,56.65
2023-02-11T00:33:52.104Z,56.69
2023-02-11T00:36:22.893Z,56.66
2023-02-11T00:38:52.048Z,56.66
2023-02-11T00:41:20.389Z,56.58
2023-02-11T00:43:47.987Z,56.54
2023-02-11T00:46:15.925Z,56.58
2023-02-11T00:48:43.183Z,56.65
2023-02-11T00:51:11.497Z,56.60
2023-02-11T00:53:38.639Z,56.73
2023-02-11T00:56:06.459Z,56.66
2023-02-11T00:58:35.084Z,56.68
2023-02-11T01:01:02.670Z,56.60
2023-02-11T01:03:30.000Z,56.61
2023-02-11T01:05:57.258Z,56.72
2023-02-11T01:08:24.420Z,56.51
2023-02-11T01:11:04.912Z,56.45
2023-02-11T01:13:35.479Z,56.63
2023-02-11T01:16:03.045Z,56.50
2023-02-11T01:18:30.310Z,56.63
2023-02-11T01:20:57.438Z,56.54
2023-02-11T01:23:24.506Z,56.56
2023-02-11T01:25:52.092Z,56.53
2023-02-11T01:28:24.886Z,56.48
2023-02-11T01:30:54.629Z,56.39
2023-02-11T01:33:22.882Z,56.47
2023-02-11T01:35:50.744Z,56.35
2023-02-11T01:38:25.460Z,56.42
2023-02-11T01:40:56.515Z,56.37
2023-02-11T01:43:25.109Z,56.45
2023-02-11T01:46:12.934Z,56.46
2023-02-11T01:48:44.206Z,56.45
2023-02-11T01:51:17.587Z,56.43
2023-02-11T01:54:05.331Z,56.48
2023-02-11T01:56:56.121Z,56.44
2023-02-11T01:59:39.496Z,56.23
2023-02-11T02:02:11.489Z,56.32
2023-02-11T02:04:55.649Z,56.28
2023-02-11T02:07:50.611Z,56.29
2023-02-11T02:10:23.216Z,56.31
2023-02-11T02:12:50.333Z,56.28
2023-02-11T02:15:32.500Z,56.23
2023-02-11T02:18:02.146Z,56.34
2023-02-11T02:21:03.306Z,56.24
2023-02-11T02:23:50.485Z,56.24
2023-02-11T02:26:56.719Z,56.25
2023-02-11T02:30:02.685Z,56.17
2023-02-11T02:32:32.589Z,56.22
2023-02-11T02:35:19.796Z,55.99
2023-02-11T02:38:08.931Z,56.07
2023-02-11T02:41:04.283Z,56.17
2023-02-11T02:43:32.421Z,56.19
2023-02-11T02:46:16.439Z,56.10
2023-02-11T02:48:44.723Z,56.05
2023-02-11T02:51:19.551Z,56.07
2023-02-11T02:54:00.732Z,56.08
2023-02-11T02:56:36.905Z,55.96
2023-02-11T02:59:34.337Z,55.97
2023-02-11T03:02:26.652Z,56.07
2023-02-11T03:05:02.437Z,56.10
2023-02-11T03:07:47.472Z,55.87
2023-02-11T03:10:22.036Z,55.94
2023-02-11T03:12:50.723Z,55.97
2023-02-11T03:15:21.458Z,55.98
2023-02-11T03:17:51.734Z,55.88
2023-02-11T03:20:22.466Z,56.00
2023-02-11T03:22:56.068Z,55.93
2023-02-11T03:25:31.172Z,55.89
2023-02-11T03:28:08.674Z,55.91
2023-02-11T03:30:43.756Z,55.89
2023-02-11T03:33:36.064Z,55.92
2023-02-11T03:36:12.665Z,55.97
2023-02-11T03:38:47.730Z,55.90
2023-02-11T03:41:18.256Z,55.86
2023-02-11T03:43:51.125Z,55.81
2023-02-11T03:46:21.727Z,55.83
2023-02-11T03:48:52.720Z,55.90
2023-02-11T03:51:21.084Z,55.89
2023-02-11T03:53:50.018Z,55.92
2023-02-11T03:56:24.567Z,55.82
2023-02-11T03:58:51.727Z,55.80
2023-02-11T04:01:19.574Z,55.88
2023-02-11T04:03:47.385Z,55.75
2023-02-11T04:06:15.132Z,55.78
2023-02-11T04:08:42.430Z,55.62
2023-02-11T04:11:10.638Z,55.55
2023-02-11T04:13:37.993Z,55.71
2023-02-11T04:16:05.887Z,55.53
2023-02-11T04:18:33.093Z,55.57
2023-02-11T04:21:01.879Z,55.48
2023-02-11T04:23:29.470Z,55.67
2023-02-11T04:25:57.083Z,55.60
2023-02-11T04:28:24.590Z,55.71
2023-02-11T04:30:53.603Z,55.71
2023-02-11T04:33:20.898Z,55.65
2023-02-11T04:35:49.833Z,55.76
2023-02-11T04:38:17.460Z,55.70
2023-02-11T04:40:44.608Z,55.74
2023-02-11T04:43:11.957Z,55.99
2023-02-11T04:45:39.146Z,55.90
2023-02-11T04:48:06.987Z,56.02
2023-02-11T04:50:34.591Z,56.01
2023-02-11T04:53:02.004Z,55.99
2023-02-11T04:55:29.075Z,55.97
2023-02-11T04:57:56.172Z,55.91
2023-02-11T05:00:23.472Z,55.98
2023-02-11T05:02:50.725Z,56.13
2023-02-11T05:05:17.869Z,56.17
2023-02-11T05:07:45.539Z,56.30
2023-02-11T05:10:12.790Z,56.34
2023-02-11T05:12:40.199Z,56.45
2023-02-11T05:15:07.675Z,56.57
2023-02-11T05:17:34.912Z,56.72
2023-02-11T05:20:02.049Z,56.67
2023-02-11T05:22:32.613Z,56.55
2023-02-11T05:25:00.169Z,56.62
2023-02-11T05:27:27.463Z,57.00
2023-02-11T05:29:54.865Z,57.14
2023-02-11T05:32:22.124Z,57.12
2023-02-11T05:34:49.462Z,56.92
2023-02-11T05:37:16.850Z,57.05
2023-02-11T05:39:44.498Z,56.78
2023-02-11T05:42:11.891Z,56.89
2023-02-11T05:44:39.428Z,56.96
2023-02-11T05:47:08.893Z,56.79
2023-02-11T05:49:36.127Z,56.96
2023-02-11T05:52:03.923Z,56.76
2023-02-11T05:54:35.784Z,56.69
2023-02-11T05:57:03.092Z,56.82
2023-02-11T05:59:30.237Z,57.16
2023-02-11T06:01:57.363Z,57.03
2023-02-11T06:04:24.451Z,56.95
2023-02-11T06:06:51.432Z,56.83
2023-02-11T06:09:19.287Z,56.74
2023-02-11T06:11:46.428Z,56.75
2023-02-11T06:14:14.589Z,56.78
2023-02-11T06:16:41.665Z,56.60
2023-02-11T06:19:08.870Z,56.60
2023-02-11T06:21:43.232Z,56.61
2023-02-11T06:24:11.499Z,56.73
2023-02-11T06:26:38.862Z,56.65
2023-02-11T06:29:06.120Z,56.51
2023-02-11T06:31:33.440Z,56.35
2023-02-11T06:34:01.179Z,56.28
2023-02-11T06:36:28.104Z,56.26
2023-02-11T06:38:56.280Z,56.43
2023-02-11T06:41:26.256Z,56.35
2023-02-11T06:43:53.938Z,56.30
2023-02-11T06:46:21.052Z,56.17
2023-02-11T06:48:49.244Z,56.21
2023-02-11T06:51:16.704Z,56.39
2023-02-11T06:53:46.606Z,56.23
2023-02-11T06:56:17.556Z,56.32
2023-02-11T06:58:45.056Z,56.39
2023-02-11T07:01:15.405Z,56.29
2023-02-11T07:03:47.013Z,56.34
2023-02-11T07:06:16.904Z,56.26
2023-02-11T07:08:46.118Z,56.66
2023-02-11T07:11:15.654Z,56.64
2023-02-11T07:13:43.485Z,56.58
2023-02-11T07:16:13.716Z,56.47
2023-02-11T07:18:44.540Z,56.51
2023-02-11T07:21:13.758Z,56.30
2023-02-11T07:23:41.488Z,56.16
2023-02-11T07:26:11.296Z,56.05
2023-02-11T07:28:39.456Z,55.88
2023-02-11T07:31:09.196Z,56.16
2023-02-11T07:33:37.201Z,56.18
2023-02-11T07:36:06.062Z,56.13
2023-02-11T07:38:34.865Z,55.93
2023-02-11T07:41:02.974Z,55.83
2023-02-11T07:43:32.953Z,55.89
2023-02-11T07:46:00.179Z,55.74
2023-02-11T07:48:27.111Z,55.69
2023-02-11T07:50:54.184Z,55.53
2023-02-11T07:53:21.386Z,55.48
2023-02-11T07:55:49.817Z,55.48
2023-02-11T07:58:17.557Z,55.49
2023-02-11T08:00:47.933Z,55.49
2023-02-11T08:03:17.298Z,55.64
2023-02-11T08:05:44.277Z,55.59
2023-02-11T08:08:11.245Z,55.50
2023-02-11T08:10:38.319Z,55.63
2023-02-11T08:13:05.471Z,55.53
2023-02-11T08:15:35.618Z,55.58
2023-02-11T08:18:02.735Z,55.35
2023-02-11T08:20:29.888Z,55.33
2023-02-11T08:22:56.932Z,55.23
2023-02-11T08:25:24.202Z,55.25
2023-02-11T08:27:51.168Z,55.24
2023-02-11T08:30:19.674Z,55.20
2023-02-11T08:32:46.828Z,55.14
2023-02-11T08:35:14.007Z,55.06
2023-02-11T08:37:44.137Z,55.15
2023-02-11T08:40:12.554Z,55.13
2023-02-11T08:42:39.521Z,55.25
2023-02-11T08:45:13.040Z,55.35
2023-02-11T08:47:40.126Z,55.16
2023-02-11T08:50:11.451Z,55.16
2023-02-11T08:52:38.610Z,55.11
2023-02-11T08:55:06.476Z,55.13
2023-02-11T08:57:33.616Z,55.12
2023-02-11T09:00:00.890Z,55.11
2023-02-11T09:02:28.162Z,55.06
2023-02-11T09:04:55.370Z,55.02
2023-02-11T09:07:22.727Z,55.05
2023-02-11T09:09:50.769Z,55.07
2023-02-11T09:12:18.356Z,55.06
2023-02-11T09:14:45.920Z,55.08
2023-02-11T09:17:19.925Z,55.18
2023-02-11T09:19:52.506Z,55.18
2023-02-11T09:22:19.551Z,55.07
2023-02-11T09:24:46.501Z,55.06
2023-02-11T09:27:13.552Z,55.01
2023-02-11T09:29:42.950Z,55.08
2023-02-11T09:32:10.761Z,55.02
2023-02-11T09:34:38.255Z,55.08
2023-02-11T09:37:06.853Z,55.09
2023-02-11T09:39:36.750Z,55.07
2023-02-11T09:42:14.369Z,55.14
2023-02-11T09:44:45.248Z,55.16
2023-02-11T09:47:30.662Z,55.32
2023-02-11T09:50:10.677Z,55.25
2023-02-11T09:52:47.760Z,55.13
2023-02-11T09:55:23.262Z,55.04
2023-02-11T09:57:51.119Z,55.15
2023-02-11T10:00:23.601Z,55.04
2023-02-11T10:03:19.221Z,55.01
2023-02-11T10:06:09.206Z,55.07
2023-02-11T10:08:57.664Z,55.11
2023-02-11T10:11:46.370Z,55.01
2023-02-11T10:14:16.427Z,54.93
2023-02-11T10:17:15.918Z,54.93
2023-02-11T10:19:54.965Z,54.96
2023-02-11T10:22:32.654Z,55.07
2023-02-11T10:25:01.657Z,55.09
2023-02-11T10:27:34.282Z,55.08
2023-02-11T10:30:10.097Z,55.08
2023-02-11T10:32:50.240Z,55.05
2023-02-11T10:35:21.774Z,55.04
2023-02-11T10:37:50.321Z,55.05
2023-02-11T10:40:20.316Z,54.99
2023-02-11T10:42:53.693Z,55.00
2023-02-11T10:45:38.679Z,54.89
2023-02-11T10:48:26.501Z,54.90
2023-02-11T10:51:09.437Z,54.91
2023-02-11T10:53:36.665Z,54.88
2023-02-11T10:56:04.740Z,54.86
2023-02-11T10:58:37.514Z,55.00
2023-02-11T11:01:19.011Z,54.76
2023-02-11T11:03:53.437Z,54.84
2023-02-11T11:06:34.868Z,54.72
2023-02-11T11:09:02.365Z,54.69
2023-02-11T11:11:32.184Z,54.63
2023-02-11T11:14:00.856Z,54.56
2023-02-11T11:16:32.965Z,54.67
2023-02-11T11:19:18.618Z,54.74
2023-02-11T11:21:48.688Z,54.78
2023-02-11T11:24:27.821Z,54.67
2023-02-11T11:27:00.018Z,54.73
2023-02-11T11:29:48.427Z,54.70
2023-02-11T11:32:37.432Z,54.69
2023-02-11T11:35:20.778Z,54.84
2023-02-11T11:38:01.375Z,54.85
2023-02-11T11:40:35.805Z,54.81
2023-02-11T11:43:24.322Z,54.84
2023-02-11T11:46:00.354Z,54.98
2023-02-11T11:48:47.238Z,55.22
2023-02-11T11:51:14.356Z,55.28
2023-02-11T11:53:50.985Z,55.38
2023-02-11T11:56:26.665Z,55.62
2023-02-11T11:58:57.187Z,56.17
2023-02-11T12:01:40.429Z,56.31
2023-02-11T12:04:41.109Z,56.02
2023-02-11T12:07:32.515Z,56.41
2023-02-11T12:10:15.182Z,56.52
2023-02-11T12:13:14.522Z,56.57
2023-02-11T12:16:13.946Z,56.77
2023-02-11T12:18:46.974Z,56.86
2023-02-11T12:21:35.531Z,56.84
2023-02-11T12:24:05.829Z,56.89
2023-02-11T12:26:58.668Z,57.03
2023-02-11T12:29:25.717Z,56.93
2023-02-11T12:32:11.281Z,57.00
2023-02-11T12:34:56.508Z,56.95
2023-02-11T12:37:42.601Z,56.79
2023-02-11T12:40:15.999Z,56.73
2023-02-11T12:43:21.982Z,56.72
2023-02-11T12:46:21.246Z,56.86
2023-02-11T12:49:12.034Z,56.73
2023-02-11T12:52:01.000Z,56.69
2023-02-11T12:54:36.085Z,56.45
2023-02-11T12:57:15.557Z,56.38
2023-02-11T12:59:58.240Z,56.21
2023-02-11T13:02:45.282Z,56.14
2023-02-11T13:05:19.954Z,56.60
2023-02-11T13:07:52.541Z,56.51
2023-02-11T13:10:32.196Z,56.36
2023-02-11T13:13:17.863Z,56.42
2023-02-11T13:15:54.098Z,56.26
2023-02-11T13:18:50.026Z,56.15
2023-02-11T13:21:17.990Z,56.04
2023-02-11T13:23:45.134Z,56.11
2023-02-11T13:26:19.765Z,56.12
2023-02-11T13:28:48.754Z,55.92
2023-02-11T13:31:16.984Z,56.12
2023-02-11T13:33:45.012Z,56.02
2023-02-11T13:36:15.607Z,55.97
2023-02-11T13:39:00.145Z,56.09
2023-02-11T13:41:37.495Z,56.18
2023-02-11T13:44:10.566Z,55.92
2023-02-11T13:47:02.467Z,55.88
2023-02-11T13:49:42.620Z,55.82
2023-02-11T13:52:41.608Z,55.84
2023-02-11T13:55:14.343Z,55.87
2023-02-11T13:57:42.971Z,55.84
2023-02-11T14:00:36.853Z,55.60
2023-02-11T14:03:45.643Z,55.75
2023-02-11T14:07:07.785Z,55.69
2023-02-11T14:09:40.034Z,55.51
2023-02-11T14:12:40.051Z,55.75
2023-02-11T14:15:08.054Z,55.79
2023-02-11T14:17:35.906Z,55.68
2023-02-11T14:20:25.278Z,55.59
2023-02-11T14:22:54.105Z,55.59
2023-02-11T14:25:25.823Z,55.40
2023-02-11T14:28:14.505Z,55.53
2023-02-11T14:31:09.470Z,55.53
2023-02-11T14:34:12.702Z,55.56
2023-02-11T14:36:59.353Z,55.49
2023-02-11T14:39:52.810Z,55.51
2023-02-11T14:42:30.342Z,55.60
2023-02-11T14:45:07.720Z,55.56
2023-02-11T14:47:56.126Z,55.60
2023-02-11T14:50:28.438Z,55.59
2023-02-11T14:52:58.637Z,55.41
2023-02-11T14:55:34.053Z,55.48
2023-02-11T14:58:24.678Z,55.51
2023-02-11T15:01:36.600Z,55.50
2023-02-11T15:04:07.221Z,55.23
2023-02-11T15:06:49.823Z,55.27
2023-02-11T15:09:25.989Z,55.35
2023-02-11T15:11:54.331Z,55.46
2023-02-11T15:14:28.676Z,55.44
2023-02-11T15:16:59.215Z,55.41
2023-02-11T15:19:41.403Z,55.51
2023-02-11T15:22:20.323Z,55.48
2023-02-11T15:25:11.574Z,55.34
2023-02-11T15:27:51.681Z,55.38
2023-02-11T15:30:22.325Z,55.26
2023-02-11T15:32:59.028Z,55.25
2023-02-11T15:35:29.365Z,55.32
2023-02-11T15:37:57.997Z,55.19
2023-02-11T15:40:33.787Z,55.21
2023-02-11T15:43:06.936Z,55.27
2023-02-11T15:45:40.713Z,55.17
2023-02-11T15:48:14.976Z,55.23
2023-02-11T15:50:49.660Z,55.32
2023-02-11T15:53:30.294Z,55.21
2023-02-11T15:56:05.624Z,55.27
2023-02-11T15:58:40.709Z,55.07
2023-02-11T16:01:09.285Z,55.22
2023-02-11T16:03:37.409Z,55.16
2023-02-11T16:06:35.401Z,55.14
2023-02-11T16:09:08.334Z,55.12
2023-02-11T16:11:58.366Z,54.89
2023-02-11T16:14:31.246Z,54.89
2023-02-11T16:17:13.049Z,55.00
2023-02-11T16:19:46.737Z,55.01
2023-02-11T16:22:38.480Z,54.99
2023-02-11T16:25:07.452Z,55.08
2023-02-11T16:27:44.347Z,55.06
2023-02-11T16:30:35.511Z,55.22
2023-02-11T16:33:03.202Z,55.05
2023-02-11T16:35:30.771Z,55.06
2023-02-11T16:37:58.203Z,54.97
2023-02-11T16:40:25.290Z,55.16
2023-02-11T16:42:53.637Z,54.96
2023-02-11T16:45:20.966Z,55.00
2023-02-11T16:47:48.038Z,54.96
2023-02-11T16:50:25.603Z,55.07
2023-02-11T16:52:52.964Z,55.00
2023-02-11T16:55:21.971Z,54.94
2023-02-11T16:57:50.066Z,54.89
2023-02-11T17:00:18.078Z,54.87
2023-02-11T17:02:45.704Z,54.92
2023-02-11T17:05:20.426Z,54.80
2023-02-11T17:07:47.633Z,54.84
2023-02-11T17:10:17.790Z,54.89
2023-02-11T17:12:44.785Z,54.85
2023-02-11T17:15:11.692Z,54.95
2023-02-11T17:17:38.761Z,54.88
2023-02-11T17:20:07.423Z,54.83
2023-02-11T17:22:34.828Z,54.81
2023-02-11T17:25:01.912Z,54.74
2023-02-11T17:27:29.165Z,54.64
2023-02-11T17:29:56.528Z,54.60
2023-02-11T17:32:23.622Z,54.56
2023-02-11T17:34:53.988Z,54.59
2023-02-11T17:37:21.148Z,54.68
2023-02-11T17:39:49.929Z,54.72
2023-02-11T17:42:20.198Z,54.77
2023-02-11T17:44:47.294Z,54.71
2023-02-11T17:47:14.685Z,54.80
2023-02-11T17:49:43.139Z,54.90
2023-02-11T17:52:10.643Z,54.88
2023-02-11T17:54:43.078Z,54.79
2023-02-11T17:57:13.103Z,54.74
2023-02-11T17:59:40.656Z,54.80
2023-02-11T18:02:13.215Z,54.85
2023-02-11T18:04:43.411Z,54.81
2023-02-11T18:07:10.612Z,54.87
2023-02-11T18:09:39.350Z,54.82
2023-02-11T18:12:07.623Z,54.93
2023-02-11T18:14:39.748Z,54.87
2023-02-11T18:17:07.465Z,54.85
2023-02-11T18:19:36.800Z,54.67
2023-02-11T18:22:04.548Z,54.69
2023-02-11T18:24:31.702Z,54.77
2023-02-11T18:26:59.260Z,54.67
2023-02-11T18:29:28.969Z,54.78
2023-02-11T18:31:57.760Z,54.65
2023-02-11T18:34:25.852Z,54.71
2023-02-11T18:36:52.988Z,54.65
2023-02-11T18:39:27.092Z,54.87
2023-02-11T18:41:59.075Z,54.73
2023-02-11T18:44:27.540Z,54.84
2023-02-11T18:46:55.219Z,54.71
2023-02-11T18:49:22.965Z,54.68
2023-02-11T18:51:50.123Z,54.54
2023-02-11T18:54:20.128Z,54.66
2023-02-11T18:56:50.154Z,54.63
2023-02-11T18:59:18.525Z,54.54
2023-02-11T19:01:50.185Z,54.58
2023-02-11T19:04:20.497Z,54.56
2023-02-11T19:06:53.385Z,54.59
2023-02-11T19:09:21.367Z,54.59
2023-02-11T19:11:50.074Z,54.61
2023-02-11T19:14:25.703Z,54.63
2023-02-11T19:16:55.032Z,54.62
2023-02-11T19:19:24.082Z,54.86
2023-02-11T19:21:51.242Z,54.82
2023-02-11T19:24:19.973Z,54.82
2023-02-11T19:26:49.323Z,54.79
2023-02-11T19:29:16.680Z,54.85
2023-02-11T19:31:44.742Z,54.94
2023-02-11T19:34:14.362Z,55.01
2023-02-11T19:36:42.738Z,55.00
2023-02-11T19:39:12.129Z,54.97
2023-02-11T19:41:39.801Z,55.10
2023-02-11T19:44:07.969Z,55.02
2023-02-11T19:46:37.431Z,54.98
2023-02-11T19:49:05.670Z,55.12
2023-02-11T19:51:39.282Z,55.08
2023-02-11T19:54:08.113Z,55.16
2023-02-11T19:56:35.509Z,55.15
2023-02-11T19:59:03.459Z,55.11
2023-02-11T20:01:30.718Z,55.16
2023-02-11T20:03:58.078Z,55.02
2023-02-11T20:06:30.850Z,55.09
2023-02-11T20:09:03.642Z,55.11
2023-02-11T20:11:32.115Z,55.18
2023-02-11T20:14:02.731Z,55.05
2023-02-11T20:16:46.865Z,55.00
2023-02-11T20:19:20.607Z,55.00
2023-02-11T20:21:51.405Z,55.07
2023-02-11T20:24:22.060Z,55.10
2023-02-11T20:26:55.940Z,55.01
2023-02-11T20:29:25.471Z,54.99
2023-02-11T20:31:55.774Z,55.00
2023-02-11T20:34:23.056Z,54.97
2023-02-11T20:36:53.378Z,54.99
2023-02-11T20:39:22.720Z,55.02
2023-02-11T20:41:51.816Z,54.93
2023-02-11T20:44:19.632Z,54.93
2023-02-11T20:46:47.038Z,54.99
2023-02-11T20:49:19.077Z,54.92
2023-02-11T20:51:47.746Z,54.79
2023-02-11T20:54:18.068Z,54.92
2023-02-11T20:56:48.464Z,54.96
2023-02-11T20:59:18.415Z,54.87
2023-02-11T21:01:49.327Z,54.89
2023-02-11T21:04:21.431Z,54.88
2023-02-11T21:06:52.314Z,55.01
2023-02-11T21:09:23.515Z,54.97
2023-02-11T21:11:51.869Z,54.91
2023-02-11T21:14:21.070Z,55.08
2023-02-11T21:16:49.602Z,55.01
2023-02-11T21:19:17.318Z,55.00
2023-02-11T21:21:44.899Z,54.78
2023-02-11T21:24:12.964Z,54.90
2023-02-11T21:26:40.821Z,54.90
2023-02-11T21:29:08.989Z,54.97
2023-02-11T21:31:37.077Z,54.90
2023-02-11T21:34:05.545Z,54.82
2023-02-11T21:36:33.000Z,54.90
2023-02-11T21:39:01.947Z,54.90
2023-02-11T21:41:31.103Z,55.12
2023-02-11T21:43:58.846Z,54.95
2023-02-11T21:46:34.241Z,54.96
2023-02-11T21:49:02.290Z,54.83
2023-02-11T21:51:29.414Z,54.85
2023-02-11T21:53:59.909Z,54.88
2023-02-11T21:56:28.285Z,54.92
2023-02-11T21:58:59.998Z,54.83
2023-02-11T22:01:30.208Z,54.75
2023-02-11T22:03:59.195Z,54.75
2023-02-11T22:06:31.253Z,54.70
2023-02-11T22:09:01.812Z,54.68
2023-02-11T22:11:29.032Z,54.72
2023-02-11T22:13:59.618Z,54.70
2023-02-11T22:16:28.433Z,54.89
2023-02-11T22:18:59.190Z,54.84
2023-02-11T22:21:27.887Z,54.65
2023-02-11T22:23:56.225Z,54.71
2023-02-11T22:26:26.377Z,54.65
2023-02-11T22:28:55.512Z,54.83
2023-02-11T22:31:34.834Z,54.79
2023-02-11T22:34:04.410Z,54.72
2023-02-11T22:36:41.182Z,54.80
2023-02-11T22:39:14.885Z,54.66
2023-02-11T22:41:47.380Z,54.62
2023-02-11T22:44:16.660Z,54.70
2023-02-11T22:46:47.387Z,54.70
2023-02-11T22:49:16.075Z,55.01
2023-02-11T22:51:43.634Z,54.99
2023-02-11T22:54:15.186Z,55.37
2023-02-11T22:56:43.257Z,55.60
2023-02-11T22:59:15.728Z,55.77
2023-02-11T23:01:43.070Z,56.05
2023-02-11T23:04:13.853Z,56.19
2023-02-11T23:06:41.604Z,56.26
2023-02-11T23:09:12.762Z,56.43
2023-02-11T23:11:41.588Z,56.58
2023-02-11T23:14:10.404Z,56.59
2023-02-11T23:16:37.671Z,56.78
2023-02-11T23:19:11.548Z,56.84
2023-02-11T23:21:40.426Z,57.18
2023-02-11T23:24:14.968Z,57.21
2023-02-11T23:26:43.790Z,57.21
2023-02-11T23:29:12.333Z,57.22
2023-02-11T23:31:50.081Z,57.57
2023-02-11T23:34:25.410Z,57.73
2023-02-11T23:36:53.591Z,57.85
2023-02-11T23:39:21.367Z,57.94
2023-02-11T23:42:01.337Z,57.88
2023-02-11T23:44:29.212Z,58.00
2023-02-11T23:46:57.522Z,58.05
2023-02-11T23:49:24.981Z,58.04
2023-02-11T23:51:55.827Z,58.12
2023-02-11T23:54:23.168Z,58.18
2023-02-11T23:56:50.342Z,58.18
2023-02-11T23:59:17.597Z,58.29
